createdAt,value
2019-05-21T00:02:34.073Z,16.9
2019-05-21T00:08:02.776Z,16.8
2019-05-21T00:13:30.672Z,16.7
2019-05-21T00:18:58.124Z,16.6
2019-05-21T00:24:26.670Z,16.6
2019-05-21T00:29:54.393Z,16.5
2019-05-21T00:35:21.982Z,16.3
2019-05-21T00:40:49.661Z,16.2
2019-05-21T00:46:17.189Z,16.2
2019-05-21T00:51:44.697Z,16.1
2019-05-21T00:57:12.310Z,16.1
2019-05-21T01:02:39.872Z,16.1
2019-05-21T01:08:08.435Z,16.1
2019-05-21T01:13:36.014Z,16
2019-05-21T01:19:03.579Z,16
2019-05-21T01:24:31.411Z,15.9
2019-05-21T01:29:59.629Z,15.8
2019-05-21T01:35:28.212Z,15.7
2019-05-21T01:40:56.663Z,15.6
2019-05-21T01:46:25.213Z,15.5
2019-05-21T01:51:53.652Z,15.5
2019-05-21T01:57:24.389Z,15.5
2019-05-21T02:02:50.958Z,15.5
2019-05-21T02:08:22.145Z,15.5
2019-05-21T02:13:47.634Z,15.4
2019-05-21T02:19:15.572Z,15.4
2019-05-21T02:24:43.944Z,15.3
2019-05-21T02:30:12.209Z,15.3
2019-05-21T02:35:53.328Z,15.2
2019-05-21T02:41:09.119Z,15.3
2019-05-21T02:46:36.762Z,15.4
2019-05-21T02:52:04.223Z,15.4
2019-05-21T02:57:32.709Z,15.4
2019-05-21T03:03:00.337Z,15.5
2019-05-21T03:08:28.096Z,15.5
2019-05-21T03:13:56.440Z,15.6
2019-05-21T03:19:23.797Z,15.6
2019-05-21T03:24:53.168Z,15.6
2019-05-21T03:30:19.875Z,15.5
2019-05-21T03:35:47.457Z,15.4
2019-05-21T03:41:14.863Z,15.3
2019-05-21T03:46:42.340Z,15.3
2019-05-21T03:52:09.893Z,15.3
2019-05-21T03:57:38.384Z,15.2
2019-05-21T04:03:06.960Z,15.2
2019-05-21T04:08:34.337Z,15.2
2019-05-21T04:14:03.390Z,15.2
2019-05-21T04:19:31.889Z,15.2
2019-05-21T04:24:59.785Z,15.2
2019-05-21T04:30:28.289Z,15.1
2019-05-21T04:35:56.797Z,15.1
2019-05-21T04:41:25.183Z,15
2019-05-21T04:46:52.738Z,14.9
2019-05-21T04:52:20.294Z,14.9
2019-05-21T04:57:47.568Z,14.8
2019-05-21T05:03:16.094Z,14.8
2019-05-21T05:08:43.467Z,14.8
2019-05-21T05:14:10.974Z,14.9
2019-05-21T05:19:39.410Z,14.8
2019-05-21T05:25:07.122Z,14.8
2019-05-21T05:30:35.349Z,14.8
2019-05-21T05:41:31.106Z,14.8
2019-05-21T05:46:57.634Z,14.8
2019-05-21T05:52:34.011Z,14.7
2019-05-21T05:57:54.504Z,14.7
2019-05-21T06:03:22.982Z,14.7
2019-05-21T06:08:50.874Z,14.7
2019-05-21T06:14:18.813Z,14.7
2019-05-21T06:19:53.352Z,14.7
2019-05-21T06:25:13.655Z,14.7
2019-05-21T06:30:41.464Z,14.7
2019-05-21T06:36:08.562Z,14.8
2019-05-21T06:41:36.980Z,14.8
2019-05-21T06:47:04.419Z,14.9
2019-05-21T06:52:33.063Z,15.1
2019-05-21T06:58:00.738Z,15.2
2019-05-21T07:03:27.875Z,15.3
2019-05-21T07:08:56.465Z,15.4
2019-05-21T07:14:24.926Z,15.4
2019-05-21T07:19:53.541Z,15.5
2019-05-21T07:25:21.987Z,15.6
2019-05-21T07:30:49.396Z,15.6
2019-05-21T07:36:17.923Z,15.7
2019-05-21T07:41:46.479Z,15.8
2019-05-21T07:47:15.000Z,15.8
2019-05-21T07:52:42.577Z,15.9
2019-05-21T07:58:10.143Z,16
2019-05-21T08:03:37.686Z,16.1
2019-05-21T08:09:13.010Z,16.2
2019-05-21T08:14:33.919Z,16.4
2019-05-21T08:20:08.974Z,16.5
2019-05-21T08:25:30.195Z,16.6
2019-05-21T08:31:00.056Z,16.6
2019-05-21T08:36:25.261Z,16.5
2019-05-21T08:41:53.129Z,16.5
2019-05-21T08:47:20.517Z,16.5
2019-05-21T08:52:55.978Z,16.6
2019-05-21T08:58:17.779Z,16.7
2019-05-21T09:03:46.365Z,16.8
2019-05-21T09:09:13.956Z,16.9
2019-05-21T09:14:42.688Z,17
2019-05-21T09:20:10.804Z,17.1
2019-05-21T09:25:38.077Z,17.2
2019-05-21T09:31:05.754Z,17.1
2019-05-21T09:36:33.403Z,17.1
2019-05-21T09:42:02.301Z,17.2
2019-05-21T09:47:31.315Z,17.4
2019-05-21T09:52:59.426Z,17.6
2019-05-21T09:58:28.255Z,17.8
2019-05-21T10:03:56.910Z,18.1
2019-05-21T10:09:26.537Z,18.3
2019-05-21T10:14:54.674Z,18.5
2019-05-21T10:20:23.414Z,18.6
2019-05-21T10:25:52.521Z,18.7
2019-05-21T10:31:21.533Z,18.8
2019-05-21T10:36:48.955Z,18.8
2019-05-21T10:42:16.855Z,18.8
2019-05-21T10:47:44.624Z,18.9
2019-05-21T10:53:13.691Z,19.1
2019-05-21T10:58:41.511Z,19.4
2019-05-21T11:04:10.504Z,19.7
2019-05-21T11:09:38.447Z,19.9
2019-05-21T11:15:07.453Z,20
2019-05-21T11:20:36.380Z,20.2
2019-05-21T11:26:05.678Z,20.2
2019-05-21T11:31:33.367Z,20.2
2019-05-21T11:37:01.400Z,20.1
2019-05-21T11:42:30.633Z,20.1
2019-05-21T11:47:58.440Z,20.1
2019-05-21T11:53:31.096Z,20.1
2019-05-21T11:58:56.368Z,20
2019-05-21T12:04:25.303Z,20
2019-05-21T12:09:53.246Z,19.9
2019-05-21T12:15:21.336Z,19.9
2019-05-21T12:20:49.293Z,19.9
2019-05-21T12:26:18.175Z,19.8
2019-05-21T12:31:46.183Z,19.8
2019-05-21T12:37:15.666Z,19.8
2019-05-21T12:42:45.758Z,20
2019-05-21T12:48:12.191Z,20.1
2019-05-21T12:53:40.065Z,20.1
2019-05-21T12:59:09.071Z,20.2
2019-05-21T13:04:37.096Z,20.1
2019-05-21T13:10:06.128Z,20.1
2019-05-21T13:15:35.103Z,20
2019-05-21T13:21:04.030Z,20
2019-05-21T13:26:35.175Z,20
2019-05-21T13:32:02.025Z,20.1
2019-05-21T13:37:37.148Z,20
2019-05-21T13:42:58.929Z,19.9
2019-05-21T13:48:27.999Z,19.8
2019-05-21T13:53:55.956Z,19.7
2019-05-21T13:59:24.987Z,19.6
2019-05-21T14:04:53.715Z,19.6
2019-05-21T14:10:23.415Z,19.5
2019-05-21T14:15:51.624Z,19.5
2019-05-21T14:21:19.381Z,19.4
2019-05-21T14:26:48.315Z,19.4
2019-05-21T14:32:16.182Z,19.3
2019-05-21T14:37:45.021Z,19.2
2019-05-21T14:43:13.002Z,19.2
2019-05-21T14:48:41.048Z,19.2
2019-05-21T14:54:25.263Z,19.1
2019-05-21T14:59:38.652Z,19
2019-05-21T15:05:06.346Z,18.9
2019-05-21T15:10:47.630Z,18.8
2019-05-21T15:16:04.146Z,18.8
2019-05-21T15:21:31.827Z,18.8
2019-05-21T15:27:00.689Z,18.8
2019-05-21T15:32:29.725Z,18.7
2019-05-21T15:37:57.682Z,18.7
2019-05-21T15:43:26.136Z,18.6
2019-05-21T15:48:53.957Z,18.5
2019-05-21T15:54:22.074Z,18.3
2019-05-21T15:59:50.498Z,18.2
2019-05-21T16:05:19.289Z,18.1
2019-05-21T16:10:46.962Z,18
2019-05-21T16:16:15.890Z,17.9
2019-05-21T16:21:43.547Z,17.9
2019-05-21T16:27:11.199Z,17.8
2019-05-21T16:32:38.986Z,17.8
2019-05-21T16:38:07.678Z,17.7
2019-05-21T16:43:36.285Z,17.6
2019-05-21T16:49:04.968Z,17.5
2019-05-21T16:54:33.709Z,17.4
2019-05-21T17:00:02.766Z,17.3
2019-05-21T17:05:31.156Z,17.2
2019-05-21T17:10:59.647Z,17.1
2019-05-21T17:16:27.437Z,17
2019-05-21T17:22:03.712Z,16.9
2019-05-21T17:27:23.532Z,16.8
2019-05-21T17:32:51.287Z,16.7
2019-05-21T17:38:18.769Z,16.7
2019-05-21T17:43:47.379Z,16.5
2019-05-21T17:49:17.319Z,16.4
2019-05-21T17:54:56.010Z,16.3
2019-05-21T18:00:11.162Z,16.1
2019-05-21T18:05:39.457Z,16
2019-05-21T18:11:08.047Z,15.9
2019-05-21T18:16:36.534Z,15.8
2019-05-21T18:27:33.473Z,15.6
2019-05-21T18:33:01.125Z,15.5
2019-05-21T18:38:29.444Z,15.5
2019-05-21T18:43:57.881Z,15.4
2019-05-21T18:49:27.623Z,15.3
2019-05-21T18:54:52.968Z,15.3
2019-05-21T19:00:21.507Z,15.2
2019-05-21T19:05:49.801Z,15.2
2019-05-21T19:11:18.056Z,15.1
2019-05-21T19:16:45.451Z,15
2019-05-21T19:22:12.906Z,15
2019-05-21T19:27:41.378Z,14.9
2019-05-21T19:33:10.487Z,15
2019-05-21T19:38:38.195Z,14.9
2019-05-21T19:44:06.550Z,14.8
2019-05-21T19:49:34.904Z,14.6
2019-05-21T19:55:02.680Z,14.5
2019-05-21T20:00:29.568Z,14.5
2019-05-21T20:05:58.107Z,14.4
2019-05-21T20:11:27.925Z,14.3
2019-05-21T20:16:54.819Z,14.1
2019-05-21T20:22:22.035Z,14.1
2019-05-21T20:27:50.351Z,14.1
2019-05-21T20:33:18.757Z,14.1
2019-05-21T20:38:46.924Z,14.2
2019-05-21T20:44:15.271Z,14.2
2019-05-21T20:49:42.679Z,14.2
2019-05-21T21:00:38.304Z,14.1
2019-05-21T21:06:05.552Z,14
2019-05-21T21:11:33.257Z,14
2019-05-21T21:17:01.298Z,14
2019-05-21T21:22:29.514Z,14
2019-05-21T21:27:56.790Z,13.9
2019-05-21T21:33:25.046Z,13.8
2019-05-21T21:38:52.998Z,13.8
2019-05-21T21:44:33.018Z,13.7
2019-05-21T21:49:46.826Z,13.7
2019-05-21T21:55:15.175Z,13.7
2019-05-21T22:00:42.481Z,13.6
2019-05-21T22:06:09.730Z,13.5
2019-05-21T22:11:37.955Z,13.4
2019-05-21T22:17:05.466Z,13.4
2019-05-21T22:28:00.535Z,13.3
2019-05-21T22:33:27.917Z,13.2
2019-05-21T22:38:54.978Z,13.1
2019-05-21T22:44:22.283Z,13
2019-05-21T22:49:50.441Z,13
2019-05-21T22:55:18.528Z,13
2019-05-21T23:00:45.780Z,13
2019-05-21T23:06:14.463Z,13
2019-05-21T23:11:40.347Z,12.9
2019-05-21T23:17:07.394Z,12.8
2019-05-21T23:22:34.400Z,12.7
2019-05-21T23:28:05.079Z,12.7
2019-05-21T23:33:29.788Z,12.6
2019-05-21T23:38:56.926Z,12.5
2019-05-21T23:44:25.128Z,12.5
2019-05-21T23:49:54.589Z,12.5
2019-05-21T23:55:20.768Z,12.4
